sensor_id;sensor_type;location;lat;lon;timestamp;temperature;humidity
44435;DHT22;30138;20.964;105.830;2023-03-14T00:03:58;23.40;92.60
44435;DHT22;30138;20.964;105.830;2023-03-14T00:09:06;23.40;92.70
44435;DHT22;30138;20.964;105.830;2023-03-14T00:14:15;23.40;93.00
44435;DHT22;30138;20.964;105.830;2023-03-14T00:19:23;23.40;93.30
44435;DHT22;30138;20.964;105.830;2023-03-14T00:24:29;23.40;93.30
44435;DHT22;30138;20.964;105.830;2023-03-14T00:29:38;23.40;93.30
44435;DHT22;30138;20.964;105.830;2023-03-14T00:34:45;23.40;93.50
44435;DHT22;30138;20.964;105.830;2023-03-14T00:39:52;23.40;93.60
44435;DHT22;30138;20.964;105.830;2023-03-14T00:45:03;23.40;93.60
44435;DHT22;30138;20.964;105.830;2023-03-14T00:50:11;23.40;93.90
44435;DHT22;30138;20.964;105.830;2023-03-14T00:55:18;23.40;93.60
44435;DHT22;30138;20.964;105.830;2023-03-14T01:00:29;23.40;93.60
44435;DHT22;30138;20.964;105.830;2023-03-14T01:05:37;23.40;93.60
44435;DHT22;30138;20.964;105.830;2023-03-14T01:10:44;23.40;93.60
44435;DHT22;30138;20.964;105.830;2023-03-14T01:15:53;23.40;93.90
44435;DHT22;30138;20.964;105.830;2023-03-14T01:21:00;23.40;93.90
44435;DHT22;30138;20.964;105.830;2023-03-14T01:26:10;23.40;93.90
44435;DHT22;30138;20.964;105.830;2023-03-14T01:31:19;23.40;93.90
44435;DHT22;30138;20.964;105.830;2023-03-14T01:36:27;23.40;93.90
44435;DHT22;30138;20.964;105.830;2023-03-14T01:41:36;23.40;93.80
44435;DHT22;30138;20.964;105.830;2023-03-14T01:46:46;23.40;93.80
44435;DHT22;30138;20.964;105.830;2023-03-14T01:51:56;23.50;93.90
44435;DHT22;30138;20.964;105.830;2023-03-14T01:57:08;23.50;93.80
44435;DHT22;30138;20.964;105.830;2023-03-14T02:02:25;23.50;93.90
44435;DHT22;30138;20.964;105.830;2023-03-14T02:07:33;23.60;93.80
44435;DHT22;30138;20.964;105.830;2023-03-14T02:12:55;23.60;93.80
44435;DHT22;30138;20.964;105.830;2023-03-14T02:18:36;23.60;93.80
44435;DHT22;30138;20.964;105.830;2023-03-14T02:24:07;23.70;93.90
44435;DHT22;30138;20.964;105.830;2023-03-14T02:29:24;23.80;94.00
44435;DHT22;30138;20.964;105.830;2023-03-14T02:34:39;23.80;94.40
44435;DHT22;30138;20.964;105.830;2023-03-14T02:39:49;23.90;94.40
44435;DHT22;30138;20.964;105.830;2023-03-14T02:45:28;24.00;93.90
44435;DHT22;30138;20.964;105.830;2023-03-14T02:50:55;24.00;92.40
44435;DHT22;30138;20.964;105.830;2023-03-14T02:56:06;24.00;89.60
44435;DHT22;30138;20.964;105.830;2023-03-14T03:01:17;24.00;84.20
44435;DHT22;30138;20.964;105.830;2023-03-14T03:06:25;24.00;82.80
44435;DHT22;30138;20.964;105.830;2023-03-14T03:11:55;24.10;81.90
44435;DHT22;30138;20.964;105.830;2023-03-14T03:17:13;24.10;80.90
44435;DHT22;30138;20.964;105.830;2023-03-14T03:22:25;24.10;80.40
44435;DHT22;30138;20.964;105.830;2023-03-14T03:27:32;24.20;80.50
44435;DHT22;30138;20.964;105.830;2023-03-14T03:32:42;24.20;78.40
44435;DHT22;30138;20.964;105.830;2023-03-14T03:37:49;24.20;77.10
44435;DHT22;30138;20.964;105.830;2023-03-14T03:42:58;24.20;77.30
44435;DHT22;30138;20.964;105.830;2023-03-14T03:48:10;24.20;77.00
44435;DHT22;30138;20.964;105.830;2023-03-14T03:53:17;24.20;76.60
44435;DHT22;30138;20.964;105.830;2023-03-14T03:58:25;24.20;75.90
44435;DHT22;30138;20.964;105.830;2023-03-14T04:03:35;24.20;76.20
44435;DHT22;30138;20.964;105.830;2023-03-14T04:08:53;24.20;76.50
44435;DHT22;30138;20.964;105.830;2023-03-14T04:14:38;24.20;76.30
44435;DHT22;30138;20.964;105.830;2023-03-14T04:20:00;24.30;77.00
44435;DHT22;30138;20.964;105.830;2023-03-14T04:25:12;24.20;75.60
44435;DHT22;30138;20.964;105.830;2023-03-14T04:30:25;24.30;75.90
44435;DHT22;30138;20.964;105.830;2023-03-14T04:35:45;24.30;76.00
44435;DHT22;30138;20.964;105.830;2023-03-14T04:40:56;24.30;76.60
44435;DHT22;30138;20.964;105.830;2023-03-14T04:46:11;24.30;76.30
44435;DHT22;30138;20.964;105.830;2023-03-14T04:51:24;24.40;77.00
44435;DHT22;30138;20.964;105.830;2023-03-14T04:56:33;24.40;77.40
44435;DHT22;30138;20.964;105.830;2023-03-14T05:01:42;24.40;77.50
44435;DHT22;30138;20.964;105.830;2023-03-14T05:07:08;24.50;77.60
44435;DHT22;30138;20.964;105.830;2023-03-14T05:12:39;24.50;77.60
44435;DHT22;30138;20.964;105.830;2023-03-14T05:18:16;24.60;77.20
44435;DHT22;30138;20.964;105.830;2023-03-14T05:23:50;24.60;77.00
44435;DHT22;30138;20.964;105.830;2023-03-14T05:29:18;24.60;76.50
44435;DHT22;30138;20.964;105.830;2023-03-14T05:34:47;24.60;77.20
44435;DHT22;30138;20.964;105.830;2023-03-14T05:40:30;24.70;77.10
44435;DHT22;30138;20.964;105.830;2023-03-14T05:45:50;24.70;76.60
44435;DHT22;30138;20.964;105.830;2023-03-14T05:51:25;24.70;77.10
44435;DHT22;30138;20.964;105.830;2023-03-14T05:56:49;24.70;76.30
44435;DHT22;30138;20.964;105.830;2023-03-14T06:02:03;24.80;76.70
44435;DHT22;30138;20.964;105.830;2023-03-14T06:07:23;24.70;76.90
44435;DHT22;30138;20.964;105.830;2023-03-14T06:12:34;24.80;77.00
44435;DHT22;30138;20.964;105.830;2023-03-14T06:17:43;24.80;77.40
44435;DHT22;30138;20.964;105.830;2023-03-14T06:22:55;24.80;77.40
44435;DHT22;30138;20.964;105.830;2023-03-14T06:28:08;24.90;78.10
44435;DHT22;30138;20.964;105.830;2023-03-14T06:33:15;24.90;78.20
44435;DHT22;30138;20.964;105.830;2023-03-14T06:38:23;24.90;77.90
44435;DHT22;30138;20.964;105.830;2023-03-14T06:43:34;25.00;78.70
44435;DHT22;30138;20.964;105.830;2023-03-14T06:48:43;25.10;79.50
44435;DHT22;30138;20.964;105.830;2023-03-14T06:53:51;25.10;79.40
44435;DHT22;30138;20.964;105.830;2023-03-14T06:59:04;25.20;78.60
44435;DHT22;30138;20.964;105.830;2023-03-14T07:04:12;25.20;79.50
44435;DHT22;30138;20.964;105.830;2023-03-14T07:09:24;25.20;80.10
44435;DHT22;30138;20.964;105.830;2023-03-14T07:14:38;25.30;79.70
44435;DHT22;30138;20.964;105.830;2023-03-14T07:19:46;25.30;80.20
44435;DHT22;30138;20.964;105.830;2023-03-14T07:24:54;25.40;79.70
44435;DHT22;30138;20.964;105.830;2023-03-14T07:30:06;25.40;80.20
44435;DHT22;30138;20.964;105.830;2023-03-14T07:35:13;25.40;80.50
44435;DHT22;30138;20.964;105.830;2023-03-14T07:40:22;25.50;80.30
44435;DHT22;30138;20.964;105.830;2023-03-14T07:45:32;25.50;80.10
44435;DHT22;30138;20.964;105.830;2023-03-14T07:50:40;25.50;80.30
44435;DHT22;30138;20.964;105.830;2023-03-14T07:55:49;25.60;79.50
44435;DHT22;30138;20.964;105.830;2023-03-14T08:00:59;25.60;80.00
44435;DHT22;30138;20.964;105.830;2023-03-14T08:06:08;25.60;79.80
44435;DHT22;30138;20.964;105.830;2023-03-14T08:11:16;25.60;79.70
44435;DHT22;30138;20.964;105.830;2023-03-14T08:16:31;25.60;79.60
44435;DHT22;30138;20.964;105.830;2023-03-14T08:21:38;25.70;79.70
44435;DHT22;30138;20.964;105.830;2023-03-14T08:26:49;25.70;79.90
44435;DHT22;30138;20.964;105.830;2023-03-14T08:31:58;25.70;80.00
44435;DHT22;30138;20.964;105.830;2023-03-14T08:37:08;25.70;80.00
44435;DHT22;30138;20.964;105.830;2023-03-14T08:42:15;25.70;79.90
44435;DHT22;30138;20.964;105.830;2023-03-14T08:47:30;25.70;80.30
44435;DHT22;30138;20.964;105.830;2023-03-14T08:52:37;25.70;80.80
44435;DHT22;30138;20.964;105.830;2023-03-14T08:57:46;25.70;81.60
44435;DHT22;30138;20.964;105.830;2023-03-14T09:02:57;25.70;82.00
44435;DHT22;30138;20.964;105.830;2023-03-14T09:08:04;25.70;81.90
44435;DHT22;30138;20.964;105.830;2023-03-14T09:13:12;25.80;82.50
44435;DHT22;30138;20.964;105.830;2023-03-14T09:18:23;25.80;82.50
44435;DHT22;30138;20.964;105.830;2023-03-14T09:23:30;25.80;82.50
44435;DHT22;30138;20.964;105.830;2023-03-14T09:28:39;25.80;82.50
44435;DHT22;30138;20.964;105.830;2023-03-14T09:33:54;25.80;81.90
44435;DHT22;30138;20.964;105.830;2023-03-14T09:39:06;25.80;81.80
44435;DHT22;30138;20.964;105.830;2023-03-14T09:44:17;25.80;82.60
44435;DHT22;30138;20.964;105.830;2023-03-14T09:49:31;25.80;82.80
44435;DHT22;30138;20.964;105.830;2023-03-14T09:54:38;25.80;83.00
44435;DHT22;30138;20.964;105.830;2023-03-14T09:59:47;25.70;83.30
44435;DHT22;30138;20.964;105.830;2023-03-14T10:05:01;25.80;83.90
44435;DHT22;30138;20.964;105.830;2023-03-14T10:10:21;25.70;84.20
44435;DHT22;30138;20.964;105.830;2023-03-14T10:15:32;25.70;84.90
44435;DHT22;30138;20.964;105.830;2023-03-14T10:20:46;25.70;85.20
44435;DHT22;30138;20.964;105.830;2023-03-14T10:26:05;25.70;85.60
44435;DHT22;30138;20.964;105.830;2023-03-14T10:31:14;25.70;85.90
44435;DHT22;30138;20.964;105.830;2023-03-14T10:36:26;25.70;86.30
44435;DHT22;30138;20.964;105.830;2023-03-14T10:41:35;25.70;86.30
44435;DHT22;30138;20.964;105.830;2023-03-14T10:46:43;25.70;86.50
44435;DHT22;30138;20.964;105.830;2023-03-14T10:52:14;25.70;87.00
44435;DHT22;30138;20.964;105.830;2023-03-14T10:57:40;25.70;87.40
44435;DHT22;30138;20.964;105.830;2023-03-14T11:03:08;25.70;87.40
44435;DHT22;30138;20.964;105.830;2023-03-14T11:08:25;25.70;88.40
44435;DHT22;30138;20.964;105.830;2023-03-14T11:13:42;25.70;88.20
44435;DHT22;30138;20.964;105.830;2023-03-14T11:25:06;25.70;88.20
44435;DHT22;30138;20.964;105.830;2023-03-14T11:30:27;25.70;87.70
44435;DHT22;30138;20.964;105.830;2023-03-14T11:35:45;25.70;88.60
44435;DHT22;30138;20.964;105.830;2023-03-14T11:40:59;25.70;88.40
44435;DHT22;30138;20.964;105.830;2023-03-14T11:46:10;25.70;88.90
44435;DHT22;30138;20.964;105.830;2023-03-14T11:51:26;25.70;89.50
44435;DHT22;30138;20.964;105.830;2023-03-14T11:56:47;25.70;89.40
44435;DHT22;30138;20.964;105.830;2023-03-14T12:02:00;25.60;89.10
44435;DHT22;30138;20.964;105.830;2023-03-14T12:07:19;25.70;89.70
44435;DHT22;30138;20.964;105.830;2023-03-14T12:12:32;25.70;90.10
44435;DHT22;30138;20.964;105.830;2023-03-14T12:17:44;25.70;90.10
44435;DHT22;30138;20.964;105.830;2023-03-14T12:23:03;25.60;90.20
44435;DHT22;30138;20.964;105.830;2023-03-14T12:28:31;25.60;90.40
44435;DHT22;30138;20.964;105.830;2023-03-14T12:33:40;25.60;90.60
44435;DHT22;30138;20.964;105.830;2023-03-14T12:38:56;25.60;90.80
44435;DHT22;30138;20.964;105.830;2023-03-14T12:44:45;25.70;90.90
44435;DHT22;30138;20.964;105.830;2023-03-14T12:50:12;25.60;90.90
44435;DHT22;30138;20.964;105.830;2023-03-14T12:55:33;25.60;90.70
44435;DHT22;30138;20.964;105.830;2023-03-14T13:00:55;25.60;90.70
44435;DHT22;30138;20.964;105.830;2023-03-14T13:06:11;25.60;90.80
44435;DHT22;30138;20.964;105.830;2023-03-14T13:11:21;25.60;91.00
44435;DHT22;30138;20.964;105.830;2023-03-14T13:16:48;25.60;90.90
44435;DHT22;30138;20.964;105.830;2023-03-14T13:22:20;25.60;90.50
44435;DHT22;30138;20.964;105.830;2023-03-14T13:27:34;25.50;90.50
44435;DHT22;30138;20.964;105.830;2023-03-14T13:32:56;25.50;90.80
44435;DHT22;30138;20.964;105.830;2023-03-14T13:38:24;25.60;90.90
44435;DHT22;30138;20.964;105.830;2023-03-14T13:43:39;25.50;91.00
44435;DHT22;30138;20.964;105.830;2023-03-14T13:49:16;25.50;91.10
44435;DHT22;30138;20.964;105.830;2023-03-14T13:54:32;25.60;91.20
44435;DHT22;30138;20.964;105.830;2023-03-14T13:59:59;25.50;91.20
44435;DHT22;30138;20.964;105.830;2023-03-14T14:05:29;25.60;91.40
44435;DHT22;30138;20.964;105.830;2023-03-14T14:10:45;25.60;91.40
44435;DHT22;30138;20.964;105.830;2023-03-14T14:16:07;25.60;91.50
44435;DHT22;30138;20.964;105.830;2023-03-14T14:21:21;25.60;91.70
44435;DHT22;30138;20.964;105.830;2023-03-14T14:26:33;25.60;91.70
44435;DHT22;30138;20.964;105.830;2023-03-14T14:31:46;25.50;91.70
44435;DHT22;30138;20.964;105.830;2023-03-14T14:37:13;25.50;92.10
44435;DHT22;30138;20.964;105.830;2023-03-14T14:42:41;25.60;92.30
44435;DHT22;30138;20.964;105.830;2023-03-14T14:47:54;25.60;92.40
44435;DHT22;30138;20.964;105.830;2023-03-14T14:53:24;25.60;92.50
44435;DHT22;30138;20.964;105.830;2023-03-14T14:58:43;25.70;92.70
44435;DHT22;30138;20.964;105.830;2023-03-14T15:03:54;25.80;92.90
44435;DHT22;30138;20.964;105.830;2023-03-14T15:09:08;25.80;92.80
44435;DHT22;30138;20.964;105.830;2023-03-14T15:14:18;25.90;92.60
44435;DHT22;30138;20.964;105.830;2023-03-14T15:19:28;25.90;92.50
44435;DHT22;30138;20.964;105.830;2023-03-14T15:24:42;26.00;92.60
44435;DHT22;30138;20.964;105.830;2023-03-14T15:29:51;26.00;92.60
44435;DHT22;30138;20.964;105.830;2023-03-14T15:35:00;26.00;92.60
44435;DHT22;30138;20.964;105.830;2023-03-14T15:40:13;26.10;92.60
44435;DHT22;30138;20.964;105.830;2023-03-14T15:45:24;26.10;92.50
44435;DHT22;30138;20.964;105.830;2023-03-14T15:50:34;26.10;92.60
44435;DHT22;30138;20.964;105.830;2023-03-14T15:55:47;26.10;92.60
44435;DHT22;30138;20.964;105.830;2023-03-14T16:00:56;26.10;92.60
44435;DHT22;30138;20.964;105.830;2023-03-14T16:06:05;26.10;92.50
44435;DHT22;30138;20.964;105.830;2023-03-14T16:11:16;26.10;92.50
44435;DHT22;30138;20.964;105.830;2023-03-14T16:16:25;26.10;92.60
44435;DHT22;30138;20.964;105.830;2023-03-14T16:21:33;26.10;92.50
44435;DHT22;30138;20.964;105.830;2023-03-14T16:26:44;26.10;92.50
44435;DHT22;30138;20.964;105.830;2023-03-14T16:31:54;26.10;92.40
44435;DHT22;30138;20.964;105.830;2023-03-14T16:37:06;26.00;92.40
44435;DHT22;30138;20.964;105.830;2023-03-14T16:42:25;26.00;92.40
44435;DHT22;30138;20.964;105.830;2023-03-14T16:47:34;26.00;92.20
44435;DHT22;30138;20.964;105.830;2023-03-14T16:52:42;25.90;92.00
44435;DHT22;30138;20.964;105.830;2023-03-14T16:57:54;25.80;92.10
44435;DHT22;30138;20.964;105.830;2023-03-14T17:03:02;25.80;92.10
44435;DHT22;30138;20.964;105.830;2023-03-14T17:08:11;25.70;92.10
44435;DHT22;30138;20.964;105.830;2023-03-14T17:13:21;25.70;92.30
44435;DHT22;30138;20.964;105.830;2023-03-14T17:18:29;25.60;92.30
44435;DHT22;30138;20.964;105.830;2023-03-14T17:23:38;25.60;92.40
44435;DHT22;30138;20.964;105.830;2023-03-14T17:28:48;25.50;92.50
44435;DHT22;30138;20.964;105.830;2023-03-14T17:33:56;25.50;92.70
44435;DHT22;30138;20.964;105.830;2023-03-14T17:39:05;25.40;92.70
44435;DHT22;30138;20.964;105.830;2023-03-14T17:44:15;25.40;92.90
44435;DHT22;30138;20.964;105.830;2023-03-14T17:49:24;25.40;93.00
44435;DHT22;30138;20.964;105.830;2023-03-14T17:54:36;25.30;93.10
44435;DHT22;30138;20.964;105.830;2023-03-14T17:59:48;25.30;93.20
44435;DHT22;30138;20.964;105.830;2023-03-14T18:04:55;25.20;93.30
44435;DHT22;30138;20.964;105.830;2023-03-14T18:10:03;25.20;93.40
44435;DHT22;30138;20.964;105.830;2023-03-14T18:15:13;25.20;93.50
44435;DHT22;30138;20.964;105.830;2023-03-14T18:20:20;25.20;93.60
44435;DHT22;30138;20.964;105.830;2023-03-14T18:25:27;25.20;93.70
44435;DHT22;30138;20.964;105.830;2023-03-14T18:30:35;25.20;94.20
44435;DHT22;30138;20.964;105.830;2023-03-14T18:35:45;25.10;93.80
44435;DHT22;30138;20.964;105.830;2023-03-14T18:40:55;25.10;94.00
44435;DHT22;30138;20.964;105.830;2023-03-14T18:46:06;25.10;94.00
44435;DHT22;30138;20.964;105.830;2023-03-14T18:51:14;25.10;94.10
44435;DHT22;30138;20.964;105.830;2023-03-14T18:56:21;25.00;94.10
44435;DHT22;30138;20.964;105.830;2023-03-14T19:01:30;25.00;94.20
44435;DHT22;30138;20.964;105.830;2023-03-14T19:06:40;25.00;94.20
44435;DHT22;30138;20.964;105.830;2023-03-14T19:11:48;25.00;94.30
44435;DHT22;30138;20.964;105.830;2023-03-14T19:16:57;25.00;94.40
44435;DHT22;30138;20.964;105.830;2023-03-14T19:22:06;25.00;94.40
44435;DHT22;30138;20.964;105.830;2023-03-14T19:27:26;25.00;94.50
44435;DHT22;30138;20.964;105.830;2023-03-14T19:32:35;24.90;94.60
44435;DHT22;30138;20.964;105.830;2023-03-14T19:37:42;24.90;94.60
44435;DHT22;30138;20.964;105.830;2023-03-14T19:42:50;24.90;94.70
44435;DHT22;30138;20.964;105.830;2023-03-14T19:47:59;24.90;94.80
44435;DHT22;30138;20.964;105.830;2023-03-14T19:53:07;24.90;94.90
44435;DHT22;30138;20.964;105.830;2023-03-14T19:58:14;24.90;95.00
44435;DHT22;30138;20.964;105.830;2023-03-14T20:03:25;24.80;95.00
44435;DHT22;30138;20.964;105.830;2023-03-14T20:08:33;24.80;95.10
44435;DHT22;30138;20.964;105.830;2023-03-14T20:13:41;24.80;95.30
44435;DHT22;30138;20.964;105.830;2023-03-14T20:18:50;24.80;95.30
44435;DHT22;30138;20.964;105.830;2023-03-14T20:23:58;24.80;95.40
44435;DHT22;30138;20.964;105.830;2023-03-14T20:29:05;24.80;95.50
44435;DHT22;30138;20.964;105.830;2023-03-14T20:34:14;24.80;95.60
44435;DHT22;30138;20.964;105.830;2023-03-14T20:39:21;24.80;95.70
44435;DHT22;30138;20.964;105.830;2023-03-14T20:44:28;24.80;95.80
44435;DHT22;30138;20.964;105.830;2023-03-14T20:49:37;24.80;95.90
44435;DHT22;30138;20.964;105.830;2023-03-14T20:54:44;24.70;96.00
44435;DHT22;30138;20.964;105.830;2023-03-14T20:59:51;24.70;96.10
44435;DHT22;30138;20.964;105.830;2023-03-14T21:05:02;24.70;96.40
44435;DHT22;30138;20.964;105.830;2023-03-14T21:10:13;24.70;96.30
44435;DHT22;30138;20.964;105.830;2023-03-14T21:15:20;24.70;96.40
44435;DHT22;30138;20.964;105.830;2023-03-14T21:20:28;24.70;96.40
44435;DHT22;30138;20.964;105.830;2023-03-14T21:25:35;24.70;96.80
44435;DHT22;30138;20.964;105.830;2023-03-14T21:30:42;24.70;96.60
44435;DHT22;30138;20.964;105.830;2023-03-14T21:35:54;24.70;96.70
44435;DHT22;30138;20.964;105.830;2023-03-14T21:41:01;24.70;96.80
44435;DHT22;30138;20.964;105.830;2023-03-14T21:46:09;24.70;96.80
44435;DHT22;30138;20.964;105.830;2023-03-14T21:51:18;24.60;96.90
44435;DHT22;30138;20.964;105.830;2023-03-14T21:56:33;24.60;97.00
44435;DHT22;30138;20.964;105.830;2023-03-14T22:01:39;24.60;97.00
44435;DHT22;30138;20.964;105.830;2023-03-14T22:06:48;24.60;97.10
44435;DHT22;30138;20.964;105.830;2023-03-14T22:11:55;24.60;97.20
44435;DHT22;30138;20.964;105.830;2023-03-14T22:17:02;24.60;97.30
44435;DHT22;30138;20.964;105.830;2023-03-14T22:22:11;24.60;97.30
44435;DHT22;30138;20.964;105.830;2023-03-14T22:27:17;24.60;97.40
44435;DHT22;30138;20.964;105.830;2023-03-14T22:32:24;24.60;97.50
44435;DHT22;30138;20.964;105.830;2023-03-14T22:37:33;24.60;97.60
44435;DHT22;30138;20.964;105.830;2023-03-14T22:42:41;24.60;97.60
44435;DHT22;30138;20.964;105.830;2023-03-14T22:47:50;24.60;97.70
44435;DHT22;30138;20.964;105.830;2023-03-14T22:52:58;24.60;97.80
44435;DHT22;30138;20.964;105.830;2023-03-14T22:58:05;24.60;97.80
44435;DHT22;30138;20.964;105.830;2023-03-14T23:03:12;24.60;97.90
44435;DHT22;30138;20.964;105.830;2023-03-14T23:08:22;24.60;98.00
44435;DHT22;30138;20.964;105.830;2023-03-14T23:13:29;24.50;98.00
44435;DHT22;30138;20.964;105.830;2023-03-14T23:18:38;24.50;98.20
44435;DHT22;30138;20.964;105.830;2023-03-14T23:23:47;24.60;98.40
44435;DHT22;30138;20.964;105.830;2023-03-14T23:28:54;24.60;98.60
44435;DHT22;30138;20.964;105.830;2023-03-14T23:34:01;24.60;98.80
44435;DHT22;30138;20.964;105.830;2023-03-14T23:39:10;24.60;98.70
44435;DHT22;30138;20.964;105.830;2023-03-14T23:44:17;24.60;98.70
44435;DHT22;30138;20.964;105.830;2023-03-14T23:49:25;24.60;98.70
44435;DHT22;30138;20.964;105.830;2023-03-14T23:54:33;24.60;98.70
44435;DHT22;30138;20.964;105.830;2023-03-14T23:59:40;24.60;98.70
